createdAt,value
2018-08-17T00:08:09.861Z,91.50
2018-08-17T06:39:35.178Z,57.70
2018-08-17T06:42:06.091Z,54.50
2018-08-17T06:44:36.977Z,53.40
2018-08-17T06:47:08.026Z,52.80
2018-08-17T06:49:39.071Z,51.30
2018-08-17T06:52:09.948Z,49.20
2018-08-17T06:54:41.013Z,47.40
2018-08-17T06:57:12.879Z,46.10
2018-08-17T07:00:29.256Z,44.20
2018-08-17T07:05:37.886Z,42.80
2018-08-17T07:08:15.181Z,44.40
2018-08-17T07:10:47.425Z,45.60
2018-08-17T07:17:59.239Z,42.70
2018-08-17T07:20:30.063Z,44.00
2018-08-17T07:23:00.921Z,40.50
2018-08-17T07:25:31.840Z,40.50
2018-08-17T07:28:02.785Z,38.90
2018-08-17T07:30:33.865Z,38.50
2018-08-17T07:33:04.979Z,38.30
2018-08-17T07:35:36.062Z,38.90
2018-08-17T07:38:06.929Z,39.50
2018-08-17T07:40:38.031Z,39.60
2018-08-17T07:43:17.129Z,39.40
2018-08-17T07:46:10.134Z,36.90
2018-08-17T07:48:42.234Z,35.40
2018-08-17T07:54:27.567Z,34.10
2018-08-17T07:56:58.468Z,34.90
2018-08-17T07:59:29.381Z,33.30
2018-08-17T08:02:00.305Z,32.30
2018-08-17T08:04:31.278Z,33.00
2018-08-17T08:07:02.424Z,33.10
2018-08-17T08:09:33.480Z,32.20
2018-08-17T08:12:04.453Z,31.70
2018-08-17T08:14:35.297Z,32.90
2018-08-17T08:17:06.260Z,32.70
2018-08-17T08:19:37.362Z,32.80
2018-08-17T08:22:08.461Z,33.40
2018-08-17T08:24:40.345Z,33.10
2018-08-17T08:27:11.260Z,31.90
2018-08-17T08:29:42.141Z,33.70
2018-08-17T08:32:13.025Z,30.90
2018-08-17T08:34:43.952Z,31.50
2018-08-17T08:37:14.812Z,32.30
2018-08-17T08:39:45.753Z,32.20
2018-08-17T08:42:16.853Z,32.00
2018-08-17T08:44:47.848Z,32.80
2018-08-17T08:49:49.034Z,32.60
2018-08-17T08:52:19.897Z,31.60
2018-08-17T08:54:50.755Z,31.40
2018-08-17T08:57:21.592Z,32.30
2018-08-17T08:59:52.506Z,32.00
2018-08-17T09:02:23.411Z,31.90
2018-08-17T09:04:54.298Z,30.90
2018-08-17T09:07:25.170Z,31.70
2018-08-17T09:09:56.103Z,31.90
2018-08-17T09:12:26.959Z,31.80
2018-08-17T09:17:28.175Z,31.70
2018-08-17T09:19:59.068Z,31.20
2018-08-17T09:22:29.843Z,31.30
2018-08-17T09:25:00.533Z,32.50
2018-08-17T09:27:31.374Z,31.70
2018-08-17T09:30:02.399Z,31.60
2018-08-17T09:32:33.218Z,31.90
2018-08-17T09:35:04.155Z,32.40
2018-08-17T09:37:34.843Z,32.40
2018-08-17T09:40:06.442Z,32.40
2018-08-17T09:45:11.641Z,32.10
2018-08-17T09:47:42.484Z,33.70
2018-08-17T09:50:14.744Z,34.20
2018-08-17T09:52:45.543Z,33.70
2018-08-17T09:55:16.371Z,33.50
2018-08-17T10:02:52.785Z,36.20
2018-08-17T10:08:32.300Z,35.20
2018-08-17T10:11:03.173Z,35.40
2018-08-17T10:13:33.934Z,35.60
2018-08-17T10:16:04.791Z,35.10
2018-08-17T10:18:41.281Z,36.20
2018-08-17T10:21:12.433Z,35.60
2018-08-17T10:23:43.163Z,36.40
2018-08-17T10:26:13.944Z,36.00
2018-08-17T10:28:44.833Z,36.10
2018-08-17T10:31:18.799Z,35.40
2018-08-17T10:33:50.041Z,36.50
2018-08-17T10:36:20.814Z,37.80
2018-08-17T10:38:51.613Z,37.20
2018-08-17T10:41:22.479Z,37.30
2018-08-17T10:43:53.460Z,37.80
2018-08-17T10:46:24.331Z,36.90
2018-08-17T10:48:55.206Z,37.20
2018-08-17T10:51:26.043Z,37.30
2018-08-17T10:56:27.291Z,36.90
2018-08-17T10:58:59.682Z,36.90
2018-08-17T11:01:30.653Z,36.50
2018-08-17T11:04:01.491Z,36.00
2018-08-17T11:06:32.284Z,36.20
2018-08-17T11:09:03.319Z,36.50
2018-08-17T11:11:34.157Z,36.20
2018-08-17T11:14:05.046Z,35.20
2018-08-17T11:16:35.902Z,35.70
2018-08-17T11:19:07.896Z,35.20
2018-08-17T11:21:38.748Z,34.80
2018-08-17T11:26:40.030Z,36.30
2018-08-17T11:31:41.126Z,35.60
2018-08-17T11:34:11.950Z,34.80
2018-08-17T11:36:42.823Z,35.80
2018-08-17T11:39:13.666Z,33.90
2018-08-17T11:41:44.487Z,34.80
2018-08-17T11:44:17.022Z,35.30
2018-08-17T11:46:47.877Z,35.10
2018-08-17T11:49:18.883Z,35.30
2018-08-17T11:51:49.614Z,34.50
2018-08-17T11:56:50.886Z,35.00
2018-08-17T11:59:21.727Z,34.90
2018-08-17T12:01:52.576Z,35.40
2018-08-17T12:04:23.443Z,35.30
2018-08-17T12:06:54.491Z,35.20
2018-08-17T12:09:25.347Z,35.40
2018-08-17T12:11:56.300Z,34.30
2018-08-17T12:14:27.522Z,35.10
2018-08-17T12:16:58.372Z,35.70
2018-08-17T12:19:29.945Z,35.00
2018-08-17T12:22:00.843Z,35.40
2018-08-17T12:24:32.640Z,35.20
2018-08-17T12:27:03.420Z,35.10
2018-08-17T12:29:34.527Z,35.30
2018-08-17T12:32:05.544Z,35.40
2018-08-17T12:34:36.531Z,35.50
2018-08-17T12:37:07.465Z,34.20
2018-08-17T12:39:38.352Z,35.20
2018-08-17T12:44:39.962Z,35.40
2018-08-17T12:47:11.006Z,35.30
2018-08-17T12:49:41.861Z,34.30
2018-08-17T12:52:13.402Z,34.80
2018-08-17T12:54:44.333Z,35.80
2018-08-17T12:57:15.237Z,35.20
2018-08-17T12:59:46.149Z,36.40
2018-08-17T13:02:17.101Z,35.30
2018-08-17T13:07:18.375Z,36.50
2018-08-17T13:12:23.517Z,36.40
2018-08-17T13:14:54.531Z,36.20
2018-08-17T13:17:27.591Z,36.40
2018-08-17T13:19:58.636Z,35.80
2018-08-17T13:22:29.617Z,37.10
2018-08-17T13:25:00.650Z,38.00
2018-08-17T13:27:32.048Z,37.60
2018-08-17T13:30:03.576Z,37.60
2018-08-17T13:32:34.785Z,37.50
2018-08-17T13:35:06.264Z,38.30
2018-08-17T13:37:43.986Z,36.80
2018-08-17T13:40:18.169Z,36.60
2018-08-17T13:43:00.022Z,37.50
2018-08-17T13:45:34.333Z,37.70
2018-08-17T13:48:07.692Z,39.20
2018-08-17T13:50:45.380Z,39.30
2018-08-17T13:53:24.104Z,39.70
2018-08-17T13:56:07.293Z,39.40
2018-08-17T13:59:28.608Z,39.20
2018-08-17T14:02:16.746Z,40.20
2018-08-17T14:05:00.858Z,39.30
2018-08-17T14:07:35.448Z,39.80
2018-08-17T14:10:21.857Z,40.40
2018-08-17T14:12:55.541Z,40.50
2018-08-17T14:15:33.947Z,40.30
2018-08-17T14:18:40.825Z,40.00
2018-08-17T14:21:11.889Z,40.50
2018-08-17T14:26:27.517Z,40.10
2018-08-17T14:29:00.390Z,40.20
2018-08-17T14:32:01.492Z,39.70
2018-08-17T14:37:43.750Z,39.40
2018-08-17T14:40:24.188Z,40.70
2018-08-17T14:43:12.691Z,40.40
2018-08-17T14:50:51.183Z,39.80
2018-08-17T14:53:25.152Z,40.20
2018-08-17T14:56:03.327Z,40.70
2018-08-17T14:58:35.855Z,40.30
2018-08-17T15:01:10.113Z,40.60
2018-08-17T15:03:42.678Z,41.10
2018-08-17T15:06:17.871Z,41.00
2018-08-17T15:08:49.117Z,39.90
2018-08-17T15:11:21.319Z,40.40
2018-08-17T15:13:53.058Z,41.30
2018-08-17T15:16:37.196Z,40.70
2018-08-17T15:19:15.941Z,41.20
2018-08-17T15:21:52.921Z,40.00
2018-08-17T15:24:25.058Z,40.50
2018-08-17T15:27:02.100Z,40.30
2018-08-17T15:29:34.287Z,39.80
2018-08-17T15:32:13.477Z,40.50
2018-08-17T15:34:46.323Z,40.60
2018-08-17T15:37:18.359Z,40.90
2018-08-17T15:39:49.458Z,41.20
2018-08-17T15:42:21.487Z,41.40
2018-08-17T15:44:53.980Z,40.80
2018-08-17T15:47:26.673Z,41.00
2018-08-17T15:50:32.533Z,41.20
2018-08-17T15:53:03.771Z,40.80
2018-08-17T15:55:39.516Z,41.30
2018-08-17T15:58:10.625Z,41.00
2018-08-17T16:00:41.748Z,41.50
2018-08-17T16:03:13.099Z,41.50
2018-08-17T16:05:45.344Z,41.50
2018-08-17T16:13:45.909Z,42.00
2018-08-17T16:16:24.512Z,42.60
2018-08-17T16:19:01.648Z,42.60
2018-08-17T16:21:32.769Z,41.90
2018-08-17T16:24:08.562Z,42.60
2018-08-17T16:26:40.384Z,43.10
2018-08-17T16:29:13.016Z,43.10
2018-08-17T16:31:58.478Z,43.50
2018-08-17T16:34:41.369Z,43.20
2018-08-17T16:37:33.183Z,43.10
2018-08-17T16:40:34.743Z,42.70
2018-08-17T16:43:53.656Z,43.00
2018-08-17T16:46:37.895Z,43.00
2018-08-17T16:49:10.399Z,43.80
2018-08-17T16:51:41.381Z,44.30
2018-08-17T16:54:12.305Z,44.30
2018-08-17T16:59:13.775Z,44.40
2018-08-17T17:01:52.880Z,44.70
2018-08-17T17:04:29.958Z,45.00
2018-08-17T17:07:02.689Z,44.40
2018-08-17T17:09:34.562Z,44.20
2018-08-17T17:12:12.563Z,44.50
2018-08-17T17:14:44.214Z,45.20
2018-08-17T17:17:15.736Z,45.40
2018-08-17T17:19:46.577Z,45.50
2018-08-17T17:22:17.580Z,45.60
2018-08-17T17:24:48.511Z,47.40
2018-08-17T17:27:21.309Z,46.40
2018-08-17T17:29:52.202Z,46.30
2018-08-17T17:32:23.164Z,46.70
2018-08-17T17:34:54.035Z,46.50
2018-08-17T17:37:24.948Z,47.20
2018-08-17T17:39:55.849Z,47.20
2018-08-17T17:42:26.834Z,47.30
2018-08-17T17:49:58.897Z,47.30
2018-08-17T17:52:29.871Z,47.60
2018-08-17T17:55:00.788Z,47.70
2018-08-17T17:57:31.854Z,48.20
2018-08-17T18:00:02.747Z,48.60
2018-08-17T18:02:33.704Z,49.20
2018-08-17T18:05:04.740Z,49.70
2018-08-17T18:07:39.705Z,50.30
2018-08-17T18:10:10.639Z,50.40
2018-08-17T18:12:41.629Z,51.20
2018-08-17T18:15:13.921Z,50.70
2018-08-17T18:17:44.860Z,51.60
2018-08-17T18:20:15.945Z,51.90
2018-08-17T18:22:47.412Z,52.20
2018-08-17T18:25:19.284Z,52.50
2018-08-17T18:27:50.428Z,52.90
2018-08-17T18:30:21.481Z,53.30
2018-08-17T18:32:52.532Z,53.70
2018-08-17T18:35:23.580Z,54.10
2018-08-17T18:37:54.661Z,55.30
2018-08-17T18:42:55.995Z,56.00
2018-08-17T18:45:26.919Z,55.90
2018-08-17T18:54:11.189Z,56.50
2018-08-17T18:56:42.023Z,58.10
2018-08-17T18:59:13.006Z,59.20
2018-08-17T19:01:43.792Z,59.60
2018-08-17T19:04:14.522Z,59.40
2018-08-17T19:06:45.232Z,59.90
2018-08-17T19:11:46.288Z,59.40
2018-08-17T19:16:47.447Z,59.80
2018-08-17T19:19:18.366Z,60.70
2018-08-17T19:21:49.220Z,62.00
2018-08-17T19:26:50.371Z,62.60
2018-08-17T19:29:21.138Z,63.60
2018-08-17T19:31:55.974Z,64.80
2018-08-17T19:34:30.389Z,65.20
2018-08-17T19:37:01.202Z,65.60
2018-08-17T19:39:34.738Z,65.80
2018-08-17T19:42:05.631Z,66.60
2018-08-17T19:44:36.601Z,67.10
2018-08-17T19:47:07.575Z,68.00
2018-08-17T19:49:39.127Z,68.80
2018-08-17T20:48:58.505Z,81.30
2018-08-17T20:51:32.508Z,83.60
2018-08-17T20:54:07.802Z,84.10
